createdAt,value
2023-04-01T00:00:11.610Z,32.95
2023-04-01T00:02:42.751Z,29.17
2023-04-01T00:05:11.319Z,34.50
2023-04-01T00:07:39.132Z,25.83
2023-04-01T00:10:08.373Z,38.97
2023-04-01T00:12:36.334Z,27.73
2023-04-01T00:15:04.667Z,39.20
2023-04-01T00:17:32.231Z,37.07
2023-04-01T00:19:59.389Z,34.80
2023-04-01T00:22:27.285Z,37.08
2023-04-01T00:24:54.530Z,32.97
2023-04-01T00:27:21.403Z,33.20
2023-04-01T00:29:51.259Z,34.23
2023-04-01T00:32:18.822Z,35.50
2023-04-01T00:34:46.504Z,28.10
2023-04-01T00:37:13.807Z,42.55
2023-04-01T00:39:41.283Z,29.58
2023-04-01T00:42:08.583Z,31.83
2023-04-01T00:44:36.045Z,27.63
2023-04-01T00:47:03.113Z,34.58
2023-04-01T00:49:36.005Z,36.53
2023-04-01T00:52:05.603Z,26.08
2023-04-01T00:54:34.915Z,38.53
2023-04-01T00:57:13.049Z,28.45
2023-04-01T00:59:44.466Z,36.50
2023-04-01T01:02:13.377Z,41.88
2023-04-01T01:04:40.802Z,31.33
2023-04-01T01:07:24.539Z,29.20
2023-04-01T01:10:09.578Z,30.38
2023-04-01T01:12:46.377Z,37.08
2023-04-01T01:15:37.021Z,35.08
2023-04-01T01:18:43.040Z,41.55
2023-04-01T01:21:31.703Z,35.80
2023-04-01T01:23:59.209Z,34.25
2023-04-01T01:27:03.789Z,43.13
2023-04-01T01:30:07.123Z,18.63
2023-04-01T01:33:02.108Z,36.30
2023-04-01T01:35:34.640Z,16.97
2023-04-01T01:38:07.250Z,18.85
2023-04-01T01:40:37.020Z,26.92
2023-04-01T01:43:12.449Z,23.17
2023-04-01T01:45:45.966Z,26.33
2023-04-01T01:48:13.468Z,21.70
2023-04-01T01:50:42.230Z,19.50
2023-04-01T01:53:13.187Z,25.38
2023-04-01T01:55:43.533Z,19.40
2023-04-01T01:58:15.774Z,16.65
2023-04-01T02:00:47.523Z,22.20
2023-04-01T02:03:16.597Z,26.60
2023-04-01T02:05:44.139Z,18.70
2023-04-01T02:08:26.097Z,17.65
2023-04-01T02:11:06.619Z,19.73
2023-04-01T02:13:55.046Z,19.93
2023-04-01T02:16:28.747Z,20.10
2023-04-01T02:18:58.165Z,19.73
2023-04-01T02:21:32.210Z,19.98
2023-04-01T02:24:01.887Z,16.95
2023-04-01T02:26:29.136Z,16.03
2023-04-01T02:28:57.313Z,12.00
2023-04-01T02:31:25.674Z,13.35
2023-04-01T02:33:53.006Z,18.75
2023-04-01T02:36:20.417Z,23.65
2023-04-01T02:38:49.529Z,21.93
2023-04-01T02:41:16.798Z,19.52
2023-04-01T02:43:44.125Z,20.88
2023-04-01T02:46:11.659Z,11.55
2023-04-01T02:48:39.432Z,21.08
2023-04-01T02:51:07.137Z,19.37
2023-04-01T02:53:34.418Z,15.82
2023-04-01T02:56:01.646Z,18.98
2023-04-01T02:58:29.104Z,22.42
2023-04-01T03:00:56.618Z,19.15
2023-04-01T03:03:24.005Z,15.10
2023-04-01T03:05:51.365Z,18.98
2023-04-01T03:08:20.305Z,20.10
2023-04-01T03:10:47.617Z,15.50
2023-04-01T03:13:15.031Z,19.67
2023-04-01T03:15:42.314Z,15.20
2023-04-01T03:18:09.596Z,16.77
2023-04-01T03:20:36.841Z,15.80
2023-04-01T03:23:04.065Z,14.80
2023-04-01T03:25:31.938Z,15.73
2023-04-01T03:28:00.588Z,15.20
2023-04-01T03:30:27.923Z,18.60
2023-04-01T03:32:55.371Z,16.40
2023-04-01T03:35:22.274Z,23.20
2023-04-01T03:37:49.711Z,16.52
2023-04-01T03:40:17.003Z,22.47
2023-04-01T03:42:44.363Z,15.35
2023-04-01T03:45:12.938Z,21.33
2023-04-01T03:47:40.593Z,19.15
2023-04-01T03:50:08.742Z,21.00
2023-04-01T03:52:35.778Z,19.33
2023-04-01T03:55:03.291Z,18.58
2023-04-01T03:57:32.752Z,19.05
2023-04-01T04:00:06.320Z,18.88
2023-04-01T04:02:41.167Z,15.23
2023-04-01T04:05:10.680Z,16.20
2023-04-01T04:07:37.946Z,13.88
2023-04-01T04:10:08.364Z,17.42
2023-04-01T04:12:36.102Z,15.55
2023-04-01T04:15:03.537Z,16.10
2023-04-01T04:17:30.630Z,17.23
2023-04-01T04:19:57.507Z,20.45
2023-04-01T04:22:24.728Z,21.27
2023-04-01T04:24:51.963Z,16.10
2023-04-01T04:27:19.309Z,22.83
2023-04-01T04:29:58.178Z,20.10
2023-04-01T04:32:26.325Z,15.60
2023-04-01T04:34:53.871Z,13.82
2023-04-01T04:37:20.876Z,14.45
2023-04-01T04:39:47.738Z,14.45
2023-04-01T04:42:14.961Z,15.17
2023-04-01T04:44:42.754Z,13.55
2023-04-01T04:47:10.569Z,14.60
2023-04-01T04:49:37.850Z,12.70
2023-04-01T04:52:09.225Z,13.65
2023-04-01T04:54:36.648Z,9.47
2023-04-01T04:57:05.612Z,10.70
2023-04-01T04:59:38.305Z,12.73
2023-04-01T05:02:35.072Z,11.48
2023-04-01T05:05:02.398Z,16.08
2023-04-01T05:07:29.676Z,12.70
2023-04-01T05:09:56.991Z,14.20
2023-04-01T05:12:24.465Z,15.93
2023-04-01T05:14:58.960Z,11.80
2023-04-01T05:17:26.724Z,15.30
2023-04-01T05:19:54.517Z,12.07
2023-04-01T05:22:21.603Z,13.30
2023-04-01T05:24:48.748Z,17.30
2023-04-01T05:27:16.358Z,12.75
2023-04-01T05:29:43.902Z,13.32
2023-04-01T05:32:27.458Z,13.50
2023-04-01T05:34:54.839Z,14.13
2023-04-01T05:37:23.822Z,15.32
2023-04-01T05:39:51.038Z,18.70
2023-04-01T05:42:18.539Z,14.98
2023-04-01T05:44:46.070Z,19.37
2023-04-01T05:47:51.359Z,17.00
2023-04-01T05:50:20.092Z,20.88
2023-04-01T05:52:47.345Z,17.90
2023-04-01T05:55:14.757Z,16.83
2023-04-01T05:57:41.728Z,17.17
2023-04-01T06:00:09.180Z,18.00
2023-04-01T06:02:44.175Z,17.25
2023-04-01T06:05:23.976Z,17.83
2023-04-01T06:07:57.009Z,19.30
2023-04-01T06:10:38.657Z,18.50
2023-04-01T06:13:18.737Z,19.05
2023-04-01T06:16:05.131Z,17.92
2023-04-01T06:18:32.446Z,14.85
2023-04-01T06:21:38.467Z,18.30
2023-04-01T06:24:32.990Z,15.67
2023-04-01T06:27:25.042Z,17.70
2023-04-01T06:30:26.475Z,18.45
2023-04-01T06:32:59.511Z,17.30
2023-04-01T06:35:26.886Z,19.42
2023-04-01T06:37:56.894Z,16.00
2023-04-01T06:41:01.544Z,14.70
2023-04-01T06:43:33.951Z,13.52
2023-04-01T06:46:26.718Z,14.32
2023-04-01T06:49:27.444Z,13.88
2023-04-01T06:52:48.430Z,15.67
2023-04-01T06:55:47.109Z,14.25
2023-04-01T06:58:38.335Z,12.30
2023-04-01T07:01:09.363Z,15.38
2023-04-01T07:03:39.389Z,15.68
2023-04-01T07:06:13.647Z,13.70
2023-04-01T07:08:51.467Z,13.38
2023-04-01T07:11:30.568Z,13.95
2023-04-01T07:14:23.901Z,11.45
2023-04-01T07:17:09.736Z,15.48
2023-04-01T07:19:48.174Z,11.47
2023-04-01T07:22:29.067Z,14.43
2023-04-01T07:25:26.979Z,11.40
2023-04-01T07:28:17.386Z,14.70
2023-04-01T07:31:16.199Z,13.15
2023-04-01T07:34:01.632Z,16.37
2023-04-01T07:36:47.678Z,17.80
2023-04-01T07:39:43.591Z,14.85
2023-04-01T07:42:56.512Z,13.68
2023-04-01T07:45:35.655Z,16.73
2023-04-01T07:48:38.486Z,16.87
2023-04-01T07:51:31.508Z,21.25
2023-04-01T07:54:15.788Z,13.50
2023-04-01T07:57:07.633Z,17.20
2023-04-01T08:00:04.315Z,14.35
2023-04-01T08:03:07.537Z,18.43
2023-04-01T08:05:47.466Z,17.77
2023-04-01T08:08:28.130Z,14.90
2023-04-01T08:11:29.336Z,17.70
2023-04-01T08:14:27.335Z,16.77
2023-04-01T08:17:29.566Z,18.80
2023-04-01T08:20:27.127Z,15.40
2023-04-01T08:23:04.386Z,19.10
2023-04-01T08:25:40.864Z,14.43
2023-04-01T08:28:35.591Z,12.95
2023-04-01T08:31:14.415Z,16.80
2023-04-01T08:33:47.421Z,19.60
2023-04-01T08:36:30.539Z,14.43
2023-04-01T08:39:35.260Z,22.10
2023-04-01T08:42:17.002Z,17.40
2023-04-01T08:45:31.726Z,20.07
2023-04-01T08:48:17.494Z,17.60
2023-04-01T08:51:41.426Z,17.38
2023-04-01T08:54:23.208Z,18.05
2023-04-01T08:57:14.133Z,20.02
2023-04-01T09:00:36.183Z,20.70
2023-04-01T09:03:32.718Z,20.13
2023-04-01T09:06:27.305Z,15.93
2023-04-01T09:09:42.362Z,18.73
2023-04-01T09:12:18.505Z,25.35
2023-04-01T09:14:55.904Z,23.00
2023-04-01T09:18:10.056Z,20.23
2023-04-01T09:21:16.891Z,25.67
2023-04-01T09:23:58.477Z,23.65
2023-04-01T09:26:27.049Z,21.95
2023-04-01T09:29:15.274Z,22.50
2023-04-01T09:32:09.885Z,19.95
2023-04-01T09:35:25.531Z,16.65
2023-04-01T09:38:14.896Z,19.08
2023-04-01T09:40:56.807Z,17.77
2023-04-01T09:44:09.486Z,15.23
2023-04-01T09:47:10.710Z,17.65
2023-04-01T09:50:02.568Z,16.92
2023-04-01T09:52:51.679Z,12.80
2023-04-01T09:56:02.183Z,17.48
2023-04-01T09:59:01.181Z,14.13
2023-04-01T10:01:43.797Z,15.13
2023-04-01T10:04:44.942Z,12.95
2023-04-01T10:07:12.604Z,15.80
2023-04-01T10:10:12.014Z,13.60
2023-04-01T10:13:05.210Z,12.60
2023-04-01T10:15:54.186Z,15.27
2023-04-01T10:18:41.591Z,13.07
2023-04-01T10:21:13.613Z,15.13
2023-04-01T10:24:08.743Z,10.50
2023-04-01T10:26:47.410Z,10.03
2023-04-01T10:30:11.046Z,13.48
2023-04-01T10:33:16.603Z,9.07
2023-04-01T10:36:08.980Z,8.98
2023-04-01T10:38:58.615Z,9.75
2023-04-01T10:41:29.333Z,8.07
2023-04-01T10:44:42.577Z,10.40
2023-04-01T10:47:40.065Z,9.60
2023-04-01T10:50:26.145Z,8.05
2023-04-01T10:52:59.604Z,8.93
2023-04-01T10:55:53.101Z,7.93
2023-04-01T10:59:06.125Z,9.35
2023-04-01T11:02:15.724Z,11.18
2023-04-01T11:05:05.969Z,11.77
2023-04-01T11:08:18.250Z,10.65
2023-04-01T11:11:15.301Z,12.17
2023-04-01T11:13:58.187Z,10.52
2023-04-01T11:16:25.613Z,11.68
2023-04-01T11:18:52.478Z,12.75
2023-04-01T11:21:26.856Z,9.70
2023-04-01T11:24:26.900Z,14.03
2023-04-01T11:27:26.782Z,10.15
2023-04-01T11:30:17.362Z,8.88
2023-04-01T11:33:35.027Z,9.85
2023-04-01T11:36:02.699Z,6.80
2023-04-01T11:39:06.111Z,7.57
2023-04-01T11:42:31.245Z,9.07
2023-04-01T11:45:35.257Z,7.60
2023-04-01T11:48:18.505Z,6.50
2023-04-01T11:51:16.778Z,7.15
2023-04-01T11:54:05.176Z,7.10
2023-04-01T11:57:00.413Z,6.95
2023-04-01T11:59:32.960Z,6.95
2023-04-01T12:02:00.299Z,7.53
2023-04-01T12:04:39.388Z,7.53
2023-04-01T12:07:20.631Z,5.97
2023-04-01T12:10:19.883Z,6.25
2023-04-01T12:13:14.801Z,6.38
2023-04-01T12:16:26.023Z,5.75
2023-04-01T12:18:53.231Z,7.35
2023-04-01T12:21:41.588Z,6.47
2023-04-01T12:24:37.352Z,7.65
2023-04-01T12:27:12.769Z,8.57
2023-04-01T12:29:54.088Z,8.80
2023-04-01T12:32:39.407Z,6.90
2023-04-01T12:35:07.492Z,8.40
2023-04-01T12:38:02.291Z,9.50
2023-04-01T12:40:53.526Z,8.63
2023-04-01T12:43:45.843Z,9.20
2023-04-01T12:46:28.950Z,10.05
2023-04-01T12:49:11.607Z,8.80
2023-04-01T12:51:46.281Z,9.68
2023-04-01T12:54:24.365Z,9.52
2023-04-01T12:57:21.774Z,11.57
2023-04-01T13:00:01.656Z,7.72
2023-04-01T13:02:55.583Z,12.03
2023-04-01T13:05:40.567Z,11.63
2023-04-01T13:08:28.307Z,8.02
2023-04-01T13:11:15.764Z,9.60
2023-04-01T13:13:52.183Z,9.20
2023-04-01T13:16:30.708Z,9.80
2023-04-01T13:19:18.615Z,10.43
2023-04-01T13:22:08.294Z,9.70
2023-04-01T13:24:50.195Z,10.57
2023-04-01T13:27:27.128Z,13.50
2023-04-01T13:30:34.322Z,15.23
2023-04-01T13:33:17.980Z,12.38
2023-04-01T13:36:01.886Z,12.10
2023-04-01T13:39:02.018Z,13.30
2023-04-01T13:41:44.669Z,11.77
2023-04-01T13:44:30.522Z,12.70
2023-04-01T13:47:31.446Z,10.07
2023-04-01T13:50:19.990Z,10.93
2023-04-01T13:53:08.379Z,11.93
2023-04-01T13:55:54.696Z,10.65
2023-04-01T13:58:21.584Z,8.23
2023-04-01T14:01:07.568Z,10.88
2023-04-01T14:03:40.916Z,7.57
2023-04-01T14:06:17.254Z,9.10
2023-04-01T14:09:05.310Z,8.18
2023-04-01T14:11:40.634Z,7.10
2023-04-01T14:14:37.383Z,8.30
2023-04-01T14:17:16.527Z,7.72
2023-04-01T14:20:07.483Z,7.35
2023-04-01T14:23:17.031Z,8.43
2023-04-01T14:25:46.835Z,9.07
2023-04-01T14:28:26.394Z,7.88
2023-04-01T14:31:14.432Z,7.88
2023-04-01T14:33:56.311Z,9.32
2023-04-01T14:37:13.794Z,10.80
2023-04-01T14:39:55.559Z,13.40
2023-04-01T14:42:28.588Z,11.25
2023-04-01T14:45:45.632Z,12.23
2023-04-01T14:48:31.461Z,9.60
2023-04-01T14:51:09.384Z,8.52
2023-04-01T14:53:56.535Z,11.77
2023-04-01T14:56:42.800Z,11.98
2023-04-01T14:59:29.049Z,13.15
2023-04-01T15:02:21.253Z,12.20
2023-04-01T15:05:29.609Z,11.52
2023-04-01T15:08:05.618Z,11.53
2023-04-01T15:10:56.824Z,10.27
2023-04-01T15:13:23.586Z,10.48
2023-04-01T15:16:19.227Z,16.08
2023-04-01T15:19:05.327Z,8.80
2023-04-01T15:21:42.303Z,9.70
2023-04-01T15:24:13.984Z,12.77
2023-04-01T15:26:52.656Z,9.23
2023-04-01T15:29:28.331Z,8.80
2023-04-01T15:32:17.005Z,14.60
2023-04-01T15:35:02.490Z,12.27
2023-04-01T15:37:48.087Z,16.48
2023-04-01T15:40:23.636Z,8.98
2023-04-01T15:43:28.641Z,10.27
2023-04-01T15:46:13.462Z,11.85
2023-04-01T15:49:05.867Z,9.23
2023-04-01T15:52:16.896Z,11.82
2023-04-01T15:55:04.913Z,11.32
2023-04-01T15:57:49.181Z,8.85
2023-04-01T16:00:43.122Z,12.07
2023-04-01T16:03:31.755Z,15.97
2023-04-01T16:06:07.494Z,22.10
2023-04-01T16:08:51.072Z,16.63
2023-04-01T16:11:44.164Z,14.65
2023-04-01T16:14:32.985Z,13.98
2023-04-01T16:17:06.259Z,12.17
2023-04-01T16:19:56.856Z,10.65
2023-04-01T16:22:40.487Z,15.60
2023-04-01T16:25:28.709Z,10.23
2023-04-01T16:28:17.772Z,11.98
2023-04-01T16:30:59.039Z,20.03
2023-04-01T16:33:53.040Z,19.05
2023-04-01T16:36:29.453Z,12.82
2023-04-01T16:39:24.179Z,29.90
2023-04-01T16:42:16.100Z,14.85
2023-04-01T16:45:01.527Z,15.30
2023-04-01T16:47:46.796Z,13.07
2023-04-01T16:50:50.502Z,10.88
2023-04-01T16:53:38.338Z,31.75
2023-04-01T16:56:14.307Z,17.58
2023-04-01T16:59:08.500Z,13.37
2023-04-01T17:01:48.842Z,13.40
2023-04-01T17:04:23.627Z,19.75
2023-04-01T17:06:59.696Z,13.52
2023-04-01T17:09:26.577Z,22.98
2023-04-01T17:12:22.584Z,20.27
2023-04-01T17:15:23.417Z,17.52
2023-04-01T17:18:24.286Z,17.17
2023-04-01T17:21:06.194Z,14.15
2023-04-01T17:24:05.606Z,14.90
2023-04-01T17:26:56.274Z,15.80
2023-04-01T17:29:38.455Z,21.30
2023-04-01T17:32:17.318Z,12.80
2023-04-01T17:34:53.062Z,10.65
2023-04-01T17:37:40.093Z,16.05
2023-04-01T17:40:32.593Z,13.17
2023-04-01T17:43:33.684Z,9.88
2023-04-01T17:46:33.469Z,16.02
2023-04-01T17:49:26.837Z,15.55
2023-04-01T17:52:11.216Z,25.15
2023-04-01T17:54:47.193Z,17.30
2023-04-01T17:57:56.352Z,50.95
2023-04-01T18:00:50.623Z,18.98
2023-04-01T18:03:50.489Z,14.32
2023-04-01T18:06:33.494Z,12.77
2023-04-01T18:09:14.483Z,14.77
2023-04-01T18:12:06.186Z,31.30
2023-04-01T18:15:01.020Z,18.25
2023-04-01T18:17:49.898Z,16.42
2023-04-01T18:20:29.916Z,12.23
2023-04-01T18:23:18.288Z,15.93
2023-04-01T18:25:49.565Z,20.67
2023-04-01T18:28:38.865Z,36.85
2023-04-01T18:31:17.522Z,27.05
2023-04-01T18:34:13.953Z,13.60
2023-04-01T18:36:59.843Z,24.07
2023-04-01T18:39:42.471Z,15.68
2023-04-01T18:42:30.470Z,12.38
2023-04-01T18:45:21.678Z,15.48
2023-04-01T18:48:09.491Z,14.32
2023-04-01T18:50:52.460Z,11.70
2023-04-01T18:53:29.961Z,12.75
2023-04-01T18:56:06.276Z,17.95
2023-04-01T18:58:55.912Z,21.13
2023-04-01T19:01:52.082Z,13.93
2023-04-01T19:04:40.914Z,23.33
2023-04-01T19:07:55.905Z,20.48
2023-04-01T19:10:34.137Z,12.98
2023-04-01T19:13:26.342Z,13.70
2023-04-01T19:16:11.489Z,12.93
2023-04-01T19:19:08.643Z,14.30
2023-04-01T19:21:44.337Z,15.70
2023-04-01T19:24:18.199Z,10.95
2023-04-01T19:27:12.850Z,12.00
2023-04-01T19:29:49.368Z,10.25
2023-04-01T19:32:41.260Z,9.53
2023-04-01T19:35:24.795Z,10.52
2023-04-01T19:38:13.073Z,11.65
2023-04-01T19:40:52.509Z,10.45
2023-04-01T19:43:37.502Z,10.73
2023-04-01T19:46:35.291Z,10.27
2023-04-01T19:49:31.096Z,8.68
2023-04-01T19:52:37.744Z,10.40
2023-04-01T19:55:16.130Z,10.88
2023-04-01T19:58:13.958Z,11.25
2023-04-01T20:00:45.563Z,11.27
2023-04-01T20:03:49.839Z,11.48
2023-04-01T20:06:35.823Z,12.20
2023-04-01T20:09:21.269Z,12.93
2023-04-01T20:12:05.936Z,11.73
2023-04-01T20:14:44.743Z,13.53
2023-04-01T20:17:36.226Z,22.73
2023-04-01T20:20:11.621Z,29.67
2023-04-01T20:22:44.578Z,20.30
2023-04-01T20:25:53.425Z,15.65
2023-04-01T20:28:20.315Z,16.07
2023-04-01T20:31:01.890Z,15.05
2023-04-01T20:33:50.781Z,18.85
2023-04-01T20:36:37.164Z,16.42
2023-04-01T20:39:14.030Z,13.10
2023-04-01T20:41:53.405Z,15.27
2023-04-01T20:44:47.673Z,15.10
2023-04-01T20:47:40.087Z,14.73
2023-04-01T20:50:31.599Z,13.85
2023-04-01T20:53:12.413Z,17.63
2023-04-01T20:55:50.981Z,14.00
2023-04-01T20:58:18.215Z,13.70
2023-04-01T21:01:17.191Z,14.85
2023-04-01T21:03:59.862Z,12.00
2023-04-01T21:06:28.984Z,19.08
2023-04-01T21:09:24.521Z,15.77
2023-04-01T21:12:18.533Z,16.50
2023-04-01T21:15:38.709Z,14.65
2023-04-01T21:18:38.996Z,16.90
2023-04-01T21:21:39.360Z,12.93
2023-04-01T21:24:29.026Z,16.97
2023-04-01T21:27:29.892Z,12.30
2023-04-01T21:30:14.799Z,12.80
2023-04-01T21:32:56.535Z,16.17
2023-04-01T21:35:23.818Z,14.98
2023-04-01T21:38:30.643Z,10.23
2023-04-01T21:41:38.814Z,11.10
2023-04-01T21:44:43.658Z,12.60
2023-04-01T21:47:11.177Z,12.63
2023-04-01T21:50:00.273Z,13.57
2023-04-01T21:52:45.490Z,11.13
2023-04-01T21:55:46.373Z,12.95
2023-04-01T21:58:28.320Z,14.82
2023-04-01T22:00:55.581Z,10.48
2023-04-01T22:03:28.371Z,11.63
2023-04-01T22:06:20.794Z,14.83
2023-04-01T22:09:15.853Z,13.23
2023-04-01T22:12:15.957Z,12.85
2023-04-01T22:14:52.056Z,11.38
2023-04-01T22:18:07.987Z,9.70
2023-04-01T22:21:06.156Z,13.17
2023-04-01T22:23:55.371Z,13.35
2023-04-01T22:26:52.019Z,14.32
2023-04-01T22:29:27.990Z,11.68
2023-04-01T22:32:14.024Z,12.75
2023-04-01T22:34:53.861Z,13.00
2023-04-01T22:37:47.415Z,11.27
2023-04-01T22:40:14.679Z,13.38
2023-04-01T22:42:47.441Z,12.45
2023-04-01T22:45:14.922Z,12.65
2023-04-01T22:47:52.952Z,14.57
2023-04-01T22:50:21.527Z,13.85
2023-04-01T22:52:51.514Z,13.65
2023-04-01T22:55:25.137Z,13.65
2023-04-01T22:58:21.570Z,12.80
2023-04-01T23:00:55.621Z,12.73
2023-04-01T23:03:36.917Z,14.48
2023-04-01T23:06:05.794Z,19.90
2023-04-01T23:08:53.199Z,12.60
2023-04-01T23:11:26.687Z,14.43
2023-04-01T23:14:06.184Z,17.03
2023-04-01T23:16:38.979Z,16.17
2023-04-01T23:19:17.559Z,16.20
2023-04-01T23:22:14.522Z,14.07
2023-04-01T23:25:10.672Z,16.10
2023-04-01T23:28:03.172Z,16.93
2023-04-01T23:30:42.050Z,18.25
2023-04-01T23:33:21.059Z,19.52
2023-04-01T23:35:49.772Z,16.10
2023-04-01T23:38:17.588Z,17.70
2023-04-01T23:40:44.849Z,18.73
2023-04-01T23:43:18.330Z,19.40
2023-04-01T23:45:45.591Z,22.75
2023-04-01T23:48:16.862Z,15.55
2023-04-01T23:50:45.155Z,22.58
2023-04-01T23:53:22.181Z,20.33
2023-04-01T23:55:49.034Z,16.02
2023-04-01T23:58:23.308Z,19.52
